sensor_id;sensor_type;location;lat;lon;timestamp;temperature;humidity
27368;DHT22;14839;48.106;11.618;2023-11-22T05:01:21;3.80;94.60
27368;DHT22;14839;48.106;11.618;2023-11-22T05:03:47;3.80;94.60
27368;DHT22;14839;48.106;11.618;2023-11-22T05:06:13;3.80;94.60
27368;DHT22;14839;48.106;11.618;2023-11-22T05:08:39;3.70;94.60
27368;DHT22;14839;48.106;11.618;2023-11-22T05:11:05;3.80;94.60
27368;DHT22;14839;48.106;11.618;2023-11-22T05:13:30;3.70;94.60
27368;DHT22;14839;48.106;11.618;2023-11-22T05:15:56;3.70;94.60
27368;DHT22;14839;48.106;11.618;2023-11-22T05:18:21;3.60;94.60
27368;DHT22;14839;48.106;11.618;2023-11-22T05:20:47;3.70;94.60
27368;DHT22;14839;48.106;11.618;2023-11-22T05:23:14;3.60;94.60
27368;DHT22;14839;48.106;11.618;2023-11-22T05:25:39;3.60;94.60
27368;DHT22;14839;48.106;11.618;2023-11-22T05:28:05;3.60;94.60
27368;DHT22;14839;48.106;11.618;2023-11-22T05:30:30;3.60;94.60
27368;DHT22;14839;48.106;11.618;2023-11-22T05:32:57;3.60;94.60
27368;DHT22;14839;48.106;11.618;2023-11-22T05:35:22;3.70;94.60
27368;DHT22;14839;48.106;11.618;2023-11-22T05:37:48;3.70;94.60
27368;DHT22;14839;48.106;11.618;2023-11-22T05:40:14;3.80;94.60
27368;DHT22;14839;48.106;11.618;2023-11-22T05:42:41;3.80;94.60
27368;DHT22;14839;48.106;11.618;2023-11-22T05:45:07;3.80;94.60
27368;DHT22;14839;48.106;11.618;2023-11-22T05:47:34;3.80;94.60
27368;DHT22;14839;48.106;11.618;2023-11-22T05:49:59;3.80;94.60
27368;DHT22;14839;48.106;11.618;2023-11-22T05:52:25;3.70;94.60
27368;DHT22;14839;48.106;11.618;2023-11-22T05:54:50;3.70;94.60
27368;DHT22;14839;48.106;11.618;2023-11-22T05:57:16;3.70;94.60
27368;DHT22;14839;48.106;11.618;2023-11-22T05:59:42;3.70;94.60
27368;DHT22;14839;48.106;11.618;2023-11-22T06:02:07;3.60;94.60
27368;DHT22;14839;48.106;11.618;2023-11-22T06:04:33;3.50;94.60
27368;DHT22;14839;48.106;11.618;2023-11-22T06:07:00;3.50;94.60
27368;DHT22;14839;48.106;11.618;2023-11-22T06:09:25;3.50;94.60
27368;DHT22;14839;48.106;11.618;2023-11-22T06:11:51;3.40;94.60
27368;DHT22;14839;48.106;11.618;2023-11-22T06:14:16;3.40;94.60
27368;DHT22;14839;48.106;11.618;2023-11-22T06:16:42;3.40;94.60
27368;DHT22;14839;48.106;11.618;2023-11-22T06:19:08;3.40;94.60
27368;DHT22;14839;48.106;11.618;2023-11-22T06:21:33;3.40;94.60
27368;DHT22;14839;48.106;11.618;2023-11-22T06:24:00;3.40;94.60
27368;DHT22;14839;48.106;11.618;2023-11-22T06:26:27;3.40;94.60
27368;DHT22;14839;48.106;11.618;2023-11-22T06:28:52;3.30;94.60
27368;DHT22;14839;48.106;11.618;2023-11-22T06:31:18;3.30;94.60
27368;DHT22;14839;48.106;11.618;2023-11-22T06:33:44;3.40;94.60
27368;DHT22;14839;48.106;11.618;2023-11-22T06:36:10;3.30;94.60
27368;DHT22;14839;48.106;11.618;2023-11-22T06:38:37;3.40;94.60
27368;DHT22;14839;48.106;11.618;2023-11-22T06:41:02;3.40;94.60
27368;DHT22;14839;48.106;11.618;2023-11-22T06:43:28;3.40;94.60
27368;DHT22;14839;48.106;11.618;2023-11-22T06:45:53;3.40;94.60
27368;DHT22;14839;48.106;11.618;2023-11-22T06:48:19;3.40;94.60
27368;DHT22;14839;48.106;11.618;2023-11-22T06:50:44;3.40;94.60
27368;DHT22;14839;48.106;11.618;2023-11-22T06:53:10;3.40;94.60
27368;DHT22;14839;48.106;11.618;2023-11-22T06:55:37;3.40;94.60
27368;DHT22;14839;48.106;11.618;2023-11-22T06:58:04;3.40;94.60
27368;DHT22;14839;48.106;11.618;2023-11-22T07:00:31;3.50;94.60
27368;DHT22;14839;48.106;11.618;2023-11-22T07:02:58;3.50;94.60
27368;DHT22;14839;48.106;11.618;2023-11-22T07:05:23;3.50;94.60
27368;DHT22;14839;48.106;11.618;2023-11-22T07:07:49;3.60;94.60
27368;DHT22;14839;48.106;11.618;2023-11-22T07:10:15;3.60;94.60
27368;DHT22;14839;48.106;11.618;2023-11-22T07:12:41;3.50;94.60
27368;DHT22;14839;48.106;11.618;2023-11-22T07:15:09;3.60;94.60
27368;DHT22;14839;48.106;11.618;2023-11-22T07:17:35;3.50;94.60
27368;DHT22;14839;48.106;11.618;2023-11-22T07:20:00;3.60;94.60
27368;DHT22;14839;48.106;11.618;2023-11-22T07:22:26;3.50;94.60
27368;DHT22;14839;48.106;11.618;2023-11-22T07:24:52;3.60;94.60
27368;DHT22;14839;48.106;11.618;2023-11-22T07:27:19;3.60;94.60
27368;DHT22;14839;48.106;11.618;2023-11-22T07:29:46;3.70;94.60
27368;DHT22;14839;48.106;11.618;2023-11-22T07:32:12;3.70;94.60
27368;DHT22;14839;48.106;11.618;2023-11-22T07:34:39;3.70;94.60
27368;DHT22;14839;48.106;11.618;2023-11-22T07:37:06;3.70;94.60
27368;DHT22;14839;48.106;11.618;2023-11-22T07:39:35;3.70;94.60
27368;DHT22;14839;48.106;11.618;2023-11-22T07:42:07;3.60;94.60
27368;DHT22;14839;48.106;11.618;2023-11-22T07:44:34;3.70;94.60
27368;DHT22;14839;48.106;11.618;2023-11-22T07:47:01;3.70;94.60
27368;DHT22;14839;48.106;11.618;2023-11-22T07:49:27;3.80;94.60
27368;DHT22;14839;48.106;11.618;2023-11-22T07:51:54;3.70;94.60
27368;DHT22;14839;48.106;11.618;2023-11-22T07:54:21;3.70;94.60
27368;DHT22;14839;48.106;11.618;2023-11-22T07:56:51;3.70;94.60
27368;DHT22;14839;48.106;11.618;2023-11-22T07:59:19;3.70;94.60
27368;DHT22;14839;48.106;11.618;2023-11-22T08:01:45;3.80;94.60
27368;DHT22;14839;48.106;11.618;2023-11-22T08:04:15;3.80;94.60
27368;DHT22;14839;48.106;11.618;2023-11-22T08:06:45;3.80;94.60
27368;DHT22;14839;48.106;11.618;2023-11-22T08:09:12;3.90;94.60
27368;DHT22;14839;48.106;11.618;2023-11-22T08:11:38;3.90;94.60
27368;DHT22;14839;48.106;11.618;2023-11-22T08:14:04;3.90;94.60
27368;DHT22;14839;48.106;11.618;2023-11-22T08:16:31;3.90;94.60
27368;DHT22;14839;48.106;11.618;2023-11-22T08:18:57;3.80;94.60
27368;DHT22;14839;48.106;11.618;2023-11-22T08:21:23;3.80;94.60
27368;DHT22;14839;48.106;11.618;2023-11-22T08:23:50;3.80;94.60
27368;DHT22;14839;48.106;11.618;2023-11-22T08:26:18;3.80;94.60
27368;DHT22;14839;48.106;11.618;2023-11-22T08:28:44;3.70;94.60
27368;DHT22;14839;48.106;11.618;2023-11-22T08:31:09;3.70;94.60
27368;DHT22;14839;48.106;11.618;2023-11-22T08:33:36;3.70;94.60
27368;DHT22;14839;48.106;11.618;2023-11-22T08:36:01;3.60;94.60
27368;DHT22;14839;48.106;11.618;2023-11-22T08:38:30;3.60;94.60
27368;DHT22;14839;48.106;11.618;2023-11-22T08:41:00;3.70;94.60
27368;DHT22;14839;48.106;11.618;2023-11-22T08:43:27;3.60;94.60
27368;DHT22;14839;48.106;11.618;2023-11-22T08:45:54;3.60;94.60
27368;DHT22;14839;48.106;11.618;2023-11-22T08:48:19;3.70;94.60
27368;DHT22;14839;48.106;11.618;2023-11-22T08:50:45;3.70;94.60
27368;DHT22;14839;48.106;11.618;2023-11-22T08:53:12;3.70;94.60
27368;DHT22;14839;48.106;11.618;2023-11-22T08:55:38;3.70;94.60
27368;DHT22;14839;48.106;11.618;2023-11-22T08:58:04;3.70;94.60
27368;DHT22;14839;48.106;11.618;2023-11-22T09:00:30;3.70;94.60
27368;DHT22;14839;48.106;11.618;2023-11-22T09:02:57;3.70;94.60
27368;DHT22;14839;48.106;11.618;2023-11-22T09:05:23;3.80;94.60
27368;DHT22;14839;48.106;11.618;2023-11-22T09:07:49;3.70;94.60
27368;DHT22;14839;48.106;11.618;2023-11-22T09:10:16;3.70;94.60
27368;DHT22;14839;48.106;11.618;2023-11-22T09:12:43;3.60;94.60
27368;DHT22;14839;48.106;11.618;2023-11-22T09:15:11;3.60;94.60
27368;DHT22;14839;48.106;11.618;2023-11-22T09:17:37;3.60;94.60
27368;DHT22;14839;48.106;11.618;2023-11-22T09:20:17;3.60;94.60
27368;DHT22;14839;48.106;11.618;2023-11-22T09:22:44;3.50;94.60
27368;DHT22;14839;48.106;11.618;2023-11-22T09:25:16;3.50;94.60
27368;DHT22;14839;48.106;11.618;2023-11-22T09:27:46;3.50;94.60
27368;DHT22;14839;48.106;11.618;2023-11-22T09:30:13;3.50;94.60
27368;DHT22;14839;48.106;11.618;2023-11-22T09:33:03;3.70;94.60
27368;DHT22;14839;48.106;11.618;2023-11-22T09:35:30;3.70;94.60
27368;DHT22;14839;48.106;11.618;2023-11-22T09:38:00;3.80;94.60
27368;DHT22;14839;48.106;11.618;2023-11-22T09:40:26;3.70;94.60
27368;DHT22;14839;48.106;11.618;2023-11-22T09:42:55;3.80;94.60
27368;DHT22;14839;48.106;11.618;2023-11-22T09:45:21;3.90;94.60
27368;DHT22;14839;48.106;11.618;2023-11-22T09:47:47;3.90;94.60
27368;DHT22;14839;48.106;11.618;2023-11-22T09:50:21;3.90;94.60
27368;DHT22;14839;48.106;11.618;2023-11-22T09:52:55;3.90;94.60
27368;DHT22;14839;48.106;11.618;2023-11-22T09:55:28;4.00;94.60
27368;DHT22;14839;48.106;11.618;2023-11-22T09:57:54;3.80;94.60
27368;DHT22;14839;48.106;11.618;2023-11-22T10:00:21;3.80;94.60
27368;DHT22;14839;48.106;11.618;2023-11-22T10:02:47;3.80;94.60
27368;DHT22;14839;48.106;11.618;2023-11-22T10:05:13;3.80;94.60
27368;DHT22;14839;48.106;11.618;2023-11-22T10:07:39;3.90;94.60
27368;DHT22;14839;48.106;11.618;2023-11-22T10:10:05;3.80;94.60
27368;DHT22;14839;48.106;11.618;2023-11-22T10:12:32;3.80;94.60
27368;DHT22;14839;48.106;11.618;2023-11-22T10:15:11;3.80;94.60
27368;DHT22;14839;48.106;11.618;2023-11-22T10:17:37;3.80;94.60
27368;DHT22;14839;48.106;11.618;2023-11-22T10:20:03;3.80;94.60
27368;DHT22;14839;48.106;11.618;2023-11-22T10:22:29;3.80;94.60
27368;DHT22;14839;48.106;11.618;2023-11-22T10:24:58;3.80;94.60
27368;DHT22;14839;48.106;11.618;2023-11-22T10:27:26;3.90;94.60
27368;DHT22;14839;48.106;11.618;2023-11-22T10:29:51;3.90;94.60
27368;DHT22;14839;48.106;11.618;2023-11-22T10:32:17;3.90;94.60
27368;DHT22;14839;48.106;11.618;2023-11-22T10:34:43;3.80;94.60
27368;DHT22;14839;48.106;11.618;2023-11-22T10:37:09;3.70;94.60
27368;DHT22;14839;48.106;11.618;2023-11-22T10:39:35;3.80;94.60
27368;DHT22;14839;48.106;11.618;2023-11-22T10:42:03;3.70;94.60
27368;DHT22;14839;48.106;11.618;2023-11-22T10:44:31;3.70;94.60
27368;DHT22;14839;48.106;11.618;2023-11-22T10:46:58;3.80;94.60
27368;DHT22;14839;48.106;11.618;2023-11-22T10:49:26;3.70;94.60
27368;DHT22;14839;48.106;11.618;2023-11-22T10:51:52;3.80;94.60
27368;DHT22;14839;48.106;11.618;2023-11-22T10:54:20;3.60;94.60
27368;DHT22;14839;48.106;11.618;2023-11-22T10:56:51;3.60;94.60
27368;DHT22;14839;48.106;11.618;2023-11-22T10:59:19;3.50;94.60
27368;DHT22;14839;48.106;11.618;2023-11-22T11:01:48;3.60;94.60
27368;DHT22;14839;48.106;11.618;2023-11-22T11:04:29;3.70;94.60
27368;DHT22;14839;48.106;11.618;2023-11-22T11:06:57;3.70;94.60
27368;DHT22;14839;48.106;11.618;2023-11-22T11:09:23;3.70;94.60
27368;DHT22;14839;48.106;11.618;2023-11-22T11:11:58;3.70;94.60
27368;DHT22;14839;48.106;11.618;2023-11-22T11:14:24;3.70;94.60
27368;DHT22;14839;48.106;11.618;2023-11-22T11:16:51;3.80;94.60
27368;DHT22;14839;48.106;11.618;2023-11-22T11:19:19;3.80;94.60
27368;DHT22;14839;48.106;11.618;2023-11-22T11:21:49;3.70;94.60
27368;DHT22;14839;48.106;11.618;2023-11-22T11:24:17;3.70;94.60
27368;DHT22;14839;48.106;11.618;2023-11-22T11:26:48;3.60;94.60
27368;DHT22;14839;48.106;11.618;2023-11-22T11:29:35;3.50;94.60
27368;DHT22;14839;48.106;11.618;2023-11-22T11:32:10;3.40;94.60
27368;DHT22;14839;48.106;11.618;2023-11-22T11:34:47;3.20;94.60
27368;DHT22;14839;48.106;11.618;2023-11-22T11:37:14;3.10;94.60
27368;DHT22;14839;48.106;11.618;2023-11-22T11:39:40;3.20;94.60
27368;DHT22;14839;48.106;11.618;2023-11-22T11:42:10;3.40;94.60
27368;DHT22;14839;48.106;11.618;2023-11-22T11:44:36;3.30;94.60
27368;DHT22;14839;48.106;11.618;2023-11-22T11:47:11;3.40;94.60
27368;DHT22;14839;48.106;11.618;2023-11-22T11:49:37;3.50;94.60
27368;DHT22;14839;48.106;11.618;2023-11-22T11:52:06;3.50;94.60
27368;DHT22;14839;48.106;11.618;2023-11-22T11:54:33;3.40;94.60
27368;DHT22;14839;48.106;11.618;2023-11-22T11:57:02;3.60;94.60
27368;DHT22;14839;48.106;11.618;2023-11-22T11:59:27;3.70;94.60
27368;DHT22;14839;48.106;11.618;2023-11-22T12:01:55;3.80;94.60
27368;DHT22;14839;48.106;11.618;2023-11-22T12:04:24;3.80;94.60
27368;DHT22;14839;48.106;11.618;2023-11-22T12:06:50;3.60;94.60
27368;DHT22;14839;48.106;11.618;2023-11-22T12:09:26;3.50;94.60
27368;DHT22;14839;48.106;11.618;2023-11-22T12:11:53;3.50;94.60
27368;DHT22;14839;48.106;11.618;2023-11-22T12:14:20;3.50;94.60
27368;DHT22;14839;48.106;11.618;2023-11-22T12:16:46;3.40;94.60
27368;DHT22;14839;48.106;11.618;2023-11-22T12:19:25;3.60;94.60
27368;DHT22;14839;48.106;11.618;2023-11-22T12:21:52;3.80;94.60
27368;DHT22;14839;48.106;11.618;2023-11-22T12:24:18;3.80;94.60
27368;DHT22;14839;48.106;11.618;2023-11-22T12:26:45;3.90;94.60
27368;DHT22;14839;48.106;11.618;2023-11-22T12:29:14;3.90;94.60
27368;DHT22;14839;48.106;11.618;2023-11-22T12:31:49;3.90;94.60
27368;DHT22;14839;48.106;11.618;2023-11-22T12:34:21;4.00;94.60
27368;DHT22;14839;48.106;11.618;2023-11-22T12:36:48;4.00;94.60
27368;DHT22;14839;48.106;11.618;2023-11-22T12:39:14;4.00;94.60
27368;DHT22;14839;48.106;11.618;2023-11-22T12:41:50;3.90;94.60
27368;DHT22;14839;48.106;11.618;2023-11-22T12:44:19;3.90;94.60
27368;DHT22;14839;48.106;11.618;2023-11-22T12:46:51;3.90;94.60
27368;DHT22;14839;48.106;11.618;2023-11-22T12:49:29;3.90;94.60
27368;DHT22;14839;48.106;11.618;2023-11-22T12:51:57;3.90;94.60
27368;DHT22;14839;48.106;11.618;2023-11-22T12:54:22;3.70;94.60
27368;DHT22;14839;48.106;11.618;2023-11-22T12:56:52;3.80;94.60
27368;DHT22;14839;48.106;11.618;2023-11-22T12:59:23;3.80;94.60
27368;DHT22;14839;48.106;11.618;2023-11-22T13:01:50;3.80;94.60
27368;DHT22;14839;48.106;11.618;2023-11-22T13:04:15;3.90;94.60
27368;DHT22;14839;48.106;11.618;2023-11-22T13:06:41;3.80;94.60
27368;DHT22;14839;48.106;11.618;2023-11-22T13:09:08;3.80;94.60
27368;DHT22;14839;48.106;11.618;2023-11-22T13:11:40;3.80;94.60
27368;DHT22;14839;48.106;11.618;2023-11-22T13:14:06;3.80;94.60
27368;DHT22;14839;48.106;11.618;2023-11-22T13:16:31;3.80;94.60
27368;DHT22;14839;48.106;11.618;2023-11-22T13:18:59;3.80;94.60
27368;DHT22;14839;48.106;11.618;2023-11-22T13:21:25;3.90;94.60
27368;DHT22;14839;48.106;11.618;2023-11-22T13:23:50;3.80;94.60
27368;DHT22;14839;48.106;11.618;2023-11-22T13:26:16;3.90;94.60
27368;DHT22;14839;48.106;11.618;2023-11-22T13:28:42;4.00;94.60
27368;DHT22;14839;48.106;11.618;2023-11-22T13:31:08;4.00;94.60
27368;DHT22;14839;48.106;11.618;2023-11-22T13:33:35;3.90;94.60
27368;DHT22;14839;48.106;11.618;2023-11-22T13:36:00;4.00;94.60
27368;DHT22;14839;48.106;11.618;2023-11-22T13:38:26;3.90;94.60
27368;DHT22;14839;48.106;11.618;2023-11-22T13:40:51;3.90;94.60
27368;DHT22;14839;48.106;11.618;2023-11-22T13:43:17;3.90;94.60
27368;DHT22;14839;48.106;11.618;2023-11-22T13:45:44;4.00;94.60
27368;DHT22;14839;48.106;11.618;2023-11-22T13:48:10;4.00;94.60
27368;DHT22;14839;48.106;11.618;2023-11-22T13:50:37;4.00;94.60
27368;DHT22;14839;48.106;11.618;2023-11-22T13:53:03;3.90;94.60
27368;DHT22;14839;48.106;11.618;2023-11-22T13:55:30;4.00;94.60
27368;DHT22;14839;48.106;11.618;2023-11-22T13:57:57;3.90;94.60
27368;DHT22;14839;48.106;11.618;2023-11-22T14:00:28;3.90;94.60
27368;DHT22;14839;48.106;11.618;2023-11-22T14:02:57;3.90;94.60
27368;DHT22;14839;48.106;11.618;2023-11-22T14:05:29;3.90;94.60
27368;DHT22;14839;48.106;11.618;2023-11-22T14:07:55;3.90;94.60
27368;DHT22;14839;48.106;11.618;2023-11-22T14:10:21;3.80;94.60
27368;DHT22;14839;48.106;11.618;2023-11-22T14:12:51;3.80;94.60
27368;DHT22;14839;48.106;11.618;2023-11-22T14:15:17;3.80;94.60
27368;DHT22;14839;48.106;11.618;2023-11-22T14:17:45;3.80;94.60
27368;DHT22;14839;48.106;11.618;2023-11-22T14:20:11;3.80;94.60
27368;DHT22;14839;48.106;11.618;2023-11-22T14:22:37;3.80;94.60
27368;DHT22;14839;48.106;11.618;2023-11-22T14:25:04;3.80;94.60
27368;DHT22;14839;48.106;11.618;2023-11-22T14:27:34;3.80;94.60
27368;DHT22;14839;48.106;11.618;2023-11-22T14:29:59;3.80;94.60
27368;DHT22;14839;48.106;11.618;2023-11-22T14:32:27;3.80;94.60
27368;DHT22;14839;48.106;11.618;2023-11-22T14:34:54;3.70;94.60
27368;DHT22;14839;48.106;11.618;2023-11-22T14:37:20;3.80;94.60
27368;DHT22;14839;48.106;11.618;2023-11-22T14:39:46;3.90;94.60
27368;DHT22;14839;48.106;11.618;2023-11-22T14:42:11;3.80;94.60
27368;DHT22;14839;48.106;11.618;2023-11-22T14:44:37;3.80;94.60
27368;DHT22;14839;48.106;11.618;2023-11-22T14:47:04;3.80;94.60
27368;DHT22;14839;48.106;11.618;2023-11-22T14:49:40;3.80;94.60
27368;DHT22;14839;48.106;11.618;2023-11-22T14:52:06;3.80;94.60
27368;DHT22;14839;48.106;11.618;2023-11-22T14:54:35;3.80;94.60
27368;DHT22;14839;48.106;11.618;2023-11-22T14:57:01;3.70;94.60
27368;DHT22;14839;48.106;11.618;2023-11-22T14:59:30;3.70;94.60
27368;DHT22;14839;48.106;11.618;2023-11-22T15:01:56;3.70;94.60
27368;DHT22;14839;48.106;11.618;2023-11-22T15:04:23;3.70;94.60
27368;DHT22;14839;48.106;11.618;2023-11-22T15:06:49;3.70;94.60
27368;DHT22;14839;48.106;11.618;2023-11-22T15:09:15;3.70;94.60
27368;DHT22;14839;48.106;11.618;2023-11-22T15:11:42;3.70;94.60
27368;DHT22;14839;48.106;11.618;2023-11-22T15:14:08;3.70;94.60
27368;DHT22;14839;48.106;11.618;2023-11-22T15:16:34;3.70;94.60
27368;DHT22;14839;48.106;11.618;2023-11-22T15:19:01;3.70;94.60
27368;DHT22;14839;48.106;11.618;2023-11-22T15:21:28;3.70;94.60
27368;DHT22;14839;48.106;11.618;2023-11-22T15:23:54;3.60;94.60
27368;DHT22;14839;48.106;11.618;2023-11-22T15:26:22;3.50;94.60
27368;DHT22;14839;48.106;11.618;2023-11-22T15:28:47;3.60;94.60
27368;DHT22;14839;48.106;11.618;2023-11-22T15:31:19;3.60;94.60
27368;DHT22;14839;48.106;11.618;2023-11-22T15:33:45;3.50;94.60
27368;DHT22;14839;48.106;11.618;2023-11-22T15:36:11;3.50;94.60
27368;DHT22;14839;48.106;11.618;2023-11-22T15:38:37;3.50;94.60
27368;DHT22;14839;48.106;11.618;2023-11-22T15:41:03;3.40;94.60
27368;DHT22;14839;48.106;11.618;2023-11-22T15:43:29;3.30;94.60
27368;DHT22;14839;48.106;11.618;2023-11-22T15:45:56;3.40;94.60
27368;DHT22;14839;48.106;11.618;2023-11-22T15:48:22;3.40;94.60
27368;DHT22;14839;48.106;11.618;2023-11-22T15:50:48;3.40;94.60
27368;DHT22;14839;48.106;11.618;2023-11-22T15:53:13;3.40;94.60
27368;DHT22;14839;48.106;11.618;2023-11-22T15:55:39;3.40;94.60
27368;DHT22;14839;48.106;11.618;2023-11-22T15:58:05;3.30;94.60
27368;DHT22;14839;48.106;11.618;2023-11-22T16:00:31;3.20;94.60
27368;DHT22;14839;48.106;11.618;2023-11-22T16:02:57;3.30;94.60
27368;DHT22;14839;48.106;11.618;2023-11-22T16:05:23;3.20;94.60
27368;DHT22;14839;48.106;11.618;2023-11-22T16:07:49;3.30;94.60
27368;DHT22;14839;48.106;11.618;2023-11-22T16:10:15;3.20;94.60
27368;DHT22;14839;48.106;11.618;2023-11-22T16:12:42;3.30;94.60
27368;DHT22;14839;48.106;11.618;2023-11-22T16:15:08;3.30;94.60
27368;DHT22;14839;48.106;11.618;2023-11-22T16:17:37;3.20;94.60
27368;DHT22;14839;48.106;11.618;2023-11-22T16:20:04;3.20;94.60
27368;DHT22;14839;48.106;11.618;2023-11-22T16:22:40;3.20;94.60
27368;DHT22;14839;48.106;11.618;2023-11-22T16:25:10;3.20;94.60
27368;DHT22;14839;48.106;11.618;2023-11-22T16:27:36;3.10;94.60
27368;DHT22;14839;48.106;11.618;2023-11-22T16:30:02;3.20;94.60
27368;DHT22;14839;48.106;11.618;2023-11-22T16:32:29;3.20;94.60
27368;DHT22;14839;48.106;11.618;2023-11-22T16:34:55;3.30;94.60
27368;DHT22;14839;48.106;11.618;2023-11-22T16:37:21;3.30;94.60
27368;DHT22;14839;48.106;11.618;2023-11-22T16:39:46;3.30;94.60
27368;DHT22;14839;48.106;11.618;2023-11-22T16:42:12;3.40;94.60
27368;DHT22;14839;48.106;11.618;2023-11-22T16:44:39;3.40;94.60
27368;DHT22;14839;48.106;11.618;2023-11-22T16:47:08;3.40;94.60
27368;DHT22;14839;48.106;11.618;2023-11-22T16:49:37;3.50;94.60
27368;DHT22;14839;48.106;11.618;2023-11-22T16:52:09;3.40;94.60
27368;DHT22;14839;48.106;11.618;2023-11-22T16:54:37;3.40;94.60
27368;DHT22;14839;48.106;11.618;2023-11-22T16:57:04;3.40;94.60
27368;DHT22;14839;48.106;11.618;2023-11-22T16:59:30;3.40;94.60
27368;DHT22;14839;48.106;11.618;2023-11-22T17:01:55;3.40;94.60
27368;DHT22;14839;48.106;11.618;2023-11-22T17:04:21;3.40;94.60
27368;DHT22;14839;48.106;11.618;2023-11-22T17:06:46;3.40;94.60
27368;DHT22;14839;48.106;11.618;2023-11-22T17:09:15;3.40;94.60
27368;DHT22;14839;48.106;11.618;2023-11-22T17:11:42;3.40;94.60
27368;DHT22;14839;48.106;11.618;2023-11-22T17:14:08;3.30;94.60
27368;DHT22;14839;48.106;11.618;2023-11-22T17:16:34;3.30;94.60
27368;DHT22;14839;48.106;11.618;2023-11-22T17:18:59;3.30;94.60
27368;DHT22;14839;48.106;11.618;2023-11-22T17:21:25;3.40;94.60
27368;DHT22;14839;48.106;11.618;2023-11-22T17:23:51;3.40;94.60
27368;DHT22;14839;48.106;11.618;2023-11-22T17:26:16;3.40;94.60
27368;DHT22;14839;48.106;11.618;2023-11-22T17:28:42;3.50;94.60
27368;DHT22;14839;48.106;11.618;2023-11-22T17:31:07;3.40;94.60
27368;DHT22;14839;48.106;11.618;2023-11-22T17:33:33;3.40;94.60
27368;DHT22;14839;48.106;11.618;2023-11-22T17:35:59;3.30;94.60
27368;DHT22;14839;48.106;11.618;2023-11-22T17:38:24;3.30;94.60
27368;DHT22;14839;48.106;11.618;2023-11-22T17:40:51;3.10;94.60
27368;DHT22;14839;48.106;11.618;2023-11-22T17:43:17;3.10;94.60
27368;DHT22;14839;48.106;11.618;2023-11-22T17:45:43;3.10;94.60
27368;DHT22;14839;48.106;11.618;2023-11-22T17:48:09;3.20;94.60
27368;DHT22;14839;48.106;11.618;2023-11-22T17:50:35;3.10;94.60
27368;DHT22;14839;48.106;11.618;2023-11-22T17:53:01;3.10;94.60
27368;DHT22;14839;48.106;11.618;2023-11-22T17:55:27;3.10;94.60
27368;DHT22;14839;48.106;11.618;2023-11-22T17:57:52;3.20;94.60
27368;DHT22;14839;48.106;11.618;2023-11-22T18:00:18;3.20;94.60
27368;DHT22;14839;48.106;11.618;2023-11-22T18:02:44;3.10;94.60
27368;DHT22;14839;48.106;11.618;2023-11-22T18:05:09;3.00;94.60
27368;DHT22;14839;48.106;11.618;2023-11-22T18:07:35;3.00;94.60
27368;DHT22;14839;48.106;11.618;2023-11-22T18:10:03;3.10;94.60
27368;DHT22;14839;48.106;11.618;2023-11-22T18:12:30;3.10;94.60
27368;DHT22;14839;48.106;11.618;2023-11-22T18:14:56;3.20;94.60
27368;DHT22;14839;48.106;11.618;2023-11-22T18:17:22;3.10;94.60
27368;DHT22;14839;48.106;11.618;2023-11-22T18:19:48;3.00;94.60
27368;DHT22;14839;48.106;11.618;2023-11-22T18:22:14;3.10;94.60
27368;DHT22;14839;48.106;11.618;2023-11-22T18:24:39;3.00;94.60
27368;DHT22;14839;48.106;11.618;2023-11-22T18:27:05;2.90;94.60
27368;DHT22;14839;48.106;11.618;2023-11-22T18:29:31;3.00;94.60
27368;DHT22;14839;48.106;11.618;2023-11-22T18:31:56;3.10;94.60
27368;DHT22;14839;48.106;11.618;2023-11-22T18:34:23;3.00;94.60
27368;DHT22;14839;48.106;11.618;2023-11-22T18:36:55;3.00;94.60
27368;DHT22;14839;48.106;11.618;2023-11-22T18:39:21;3.10;94.60
27368;DHT22;14839;48.106;11.618;2023-11-22T18:41:47;3.00;94.60
27368;DHT22;14839;48.106;11.618;2023-11-22T18:44:13;3.10;94.60
27368;DHT22;14839;48.106;11.618;2023-11-22T18:46:38;3.00;94.60
27368;DHT22;14839;48.106;11.618;2023-11-22T18:49:04;3.00;94.60
27368;DHT22;14839;48.106;11.618;2023-11-22T18:51:30;3.10;94.60
27368;DHT22;14839;48.106;11.618;2023-11-22T18:53:56;3.10;94.60
27368;DHT22;14839;48.106;11.618;2023-11-22T18:56:21;3.00;94.60
27368;DHT22;14839;48.106;11.618;2023-11-22T18:58:47;2.80;94.60
27368;DHT22;14839;48.106;11.618;2023-11-22T19:01:13;2.90;94.60
27368;DHT22;14839;48.106;11.618;2023-11-22T19:03:38;2.80;94.60
27368;DHT22;14839;48.106;11.618;2023-11-22T19:06:05;2.90;94.60
27368;DHT22;14839;48.106;11.618;2023-11-22T19:08:32;3.00;94.60
27368;DHT22;14839;48.106;11.618;2023-11-22T19:10:57;3.10;94.60
27368;DHT22;14839;48.106;11.618;2023-11-22T19:13:23;3.20;94.60
27368;DHT22;14839;48.106;11.618;2023-11-22T19:15:49;3.20;94.60
27368;DHT22;14839;48.106;11.618;2023-11-22T19:18:15;3.30;94.60
27368;DHT22;14839;48.106;11.618;2023-11-22T19:20:41;3.30;94.60
27368;DHT22;14839;48.106;11.618;2023-11-22T19:23:07;3.30;94.60
27368;DHT22;14839;48.106;11.618;2023-11-22T19:25:33;3.20;94.60
27368;DHT22;14839;48.106;11.618;2023-11-22T19:28:01;3.10;94.60
27368;DHT22;14839;48.106;11.618;2023-11-22T19:30:31;3.00;94.60
27368;DHT22;14839;48.106;11.618;2023-11-22T19:32:59;3.00;94.60
27368;DHT22;14839;48.106;11.618;2023-11-22T19:35:28;3.00;94.60
27368;DHT22;14839;48.106;11.618;2023-11-22T19:37:54;2.90;94.60
27368;DHT22;14839;48.106;11.618;2023-11-22T19:40:20;2.80;94.60
27368;DHT22;14839;48.106;11.618;2023-11-22T19:42:45;2.90;94.60
27368;DHT22;14839;48.106;11.618;2023-11-22T19:45:11;2.90;94.60
27368;DHT22;14839;48.106;11.618;2023-11-22T19:47:39;3.00;94.60
27368;DHT22;14839;48.106;11.618;2023-11-22T19:50:07;2.90;94.60
27368;DHT22;14839;48.106;11.618;2023-11-22T19:52:32;2.90;94.60
27368;DHT22;14839;48.106;11.618;2023-11-22T19:54:58;3.00;94.60
27368;DHT22;14839;48.106;11.618;2023-11-22T19:57:26;3.00;94.60
27368;DHT22;14839;48.106;11.618;2023-11-22T19:59:51;3.20;94.60
27368;DHT22;14839;48.106;11.618;2023-11-22T20:02:17;3.20;94.60
27368;DHT22;14839;48.106;11.618;2023-11-22T20:04:43;3.30;94.60
27368;DHT22;14839;48.106;11.618;2023-11-22T20:07:08;3.20;94.60
27368;DHT22;14839;48.106;11.618;2023-11-22T20:09:36;3.10;94.60
27368;DHT22;14839;48.106;11.618;2023-11-22T20:12:02;3.00;94.60
27368;DHT22;14839;48.106;11.618;2023-11-22T20:14:28;3.00;94.60
27368;DHT22;14839;48.106;11.618;2023-11-22T20:16:54;3.00;94.60
27368;DHT22;14839;48.106;11.618;2023-11-22T20:19:19;3.00;94.60
27368;DHT22;14839;48.106;11.618;2023-11-22T20:21:45;3.10;94.60
27368;DHT22;14839;48.106;11.618;2023-11-22T20:24:10;3.10;94.60
27368;DHT22;14839;48.106;11.618;2023-11-22T20:26:36;3.10;94.60
27368;DHT22;14839;48.106;11.618;2023-11-22T20:29:01;3.10;94.60